Nearby METAR Reports

 

KRNT - Renton, Washington, USA
Distance from station: NNW 3mi, 4km
Updated: Fri, 14-Jun-2024 2:53pm PDT
Light rain, Overcast
Light rain, Overcast
 Wind from WSW
Wind: WSW 7 mph, 11 km/h
Temperature: 63°F, 17°C
Dew Point: 50°F, 10°C
Humidity: 64%
Barometer: 30.13 inHg, 1020.3 hPa
Summary: Light rain
Clouds: Overcast
Visibility: 8 miles, 13 km
Cloud details: Overcast 6500 ft
2024/06/14 21:53 KRNT 142153Z 25006KT 8SM -RA OVC065 17/10 A3013 RMK AO2 RAB48 SLP207 P0000 T01720100 $
KSEA - Seattle/Metro, Washington, USA
Distance from station: W 5mi, 9km
Updated: Fri, 14-Jun-2024 2:53pm PDT
Mostly cloudy
Mostly cloudy
 Wind from WSW
Wind: WSW 14 mph, 22 km/h, Gust: 20 mph, 31 km/h
Temperature: 61°F, 16°C
Dew Point: 45°F, 7°C
Humidity: 55%
Barometer: 30.14 inHg, 1020.7 hPa
Clouds: Mostly cloudy
Visibility: 10 miles, 16 km
Cloud details: Few Clouds 3000 ft
Mostly cloudy 5500 ft
2024/06/14 21:53 KSEA 142153Z 24012G17KT 10SM FEW030 BKN055 16/07 A3014 RMK AO2 RAE37 SLP213 P0000 T01610072
KBFI - Seattle/Boeing, Washington, USA
Distance from station: NW 8mi, 13km
Updated: Fri, 14-Jun-2024 2:53pm PDT
Overcast
Overcast
 Wind from SW
Wind: SW 8 mph, 13 km/h, Gust: 18 mph, 30 km/h
Temperature: 63°F, 17°C
Dew Point: 46°F, 8°C
Humidity: 56%
Barometer: 30.13 inHg, 1020.3 hPa
Clouds: Overcast
Visibility: 10 miles, 16 km
Cloud details: Overcast 6000 ft
2024/06/14 21:53 KBFI 142153Z 23007G16KT 170V260 10SM OVC060 17/08 A3013 RMK AO2 RAE2058 SLP203 P0000 T01720078
 
KTIW - Tacoma, Washington, USA
Distance from station: SW 22mi, 36km
Updated: Fri, 14-Jun-2024 2:53pm PDT
Overcast
Overcast
 Wind from WNW
Wind: WNW 7 mph, 11 km/h
Temperature: 57°F, 14°C
Dew Point: 54°F, 12°C
Humidity: 88%
Barometer: 30.14 inHg, 1020.7 hPa
Clouds: Overcast
Visibility: 10 miles, 16 km
Cloud details: Overcast 5500 ft
2024/06/14 21:53 KTIW 142153Z 29006KT 10SM OVC055 14/12 A3014 RMK AO2 RAB01E46 SLP208 P0002 T01390117
KPLU - Puyallup/Thun, Washington, USA
Distance from station: S 25mi, 41km
Updated: Fri, 14-Jun-2024 2:55pm PDT
Overcast
Overcast
 Wind from varies
Wind: varies 5 mph, 7 km/h, Gust: 13 mph, 20 km/h
Temperature: 64°F, 18°C
Dew Point: 43°F, 6°C
Humidity: 46%
Barometer: 30.13 inHg, 1020.3 hPa
Clouds: Overcast
Visibility: 10 miles, 16 km
Cloud details: Few Clouds 4800 ft
Mostly cloudy 6000 ft
Overcast 7000 ft
2024/06/14 21:55 KPLU 142155Z AUTO VRB04G11KT 10SM FEW048 BKN060 OVC070 18/06 A3013 RMK AO2
KPWT - Bremerton Ntnl, Washington, USA
Distance from station: W 26mi, 41km
Updated: Fri, 14-Jun-2024 2:56pm PDT
Light rain, Overcast
Light rain, Overcast
 Wind from SSW
Wind: SSW 9 mph, 15 km/h
Barometer: 30.15 inHg, 1021 hPa
Summary: Light rain
Clouds: Overcast
Visibility: 10 miles, 16 km
Cloud details: Few Clouds 1500 ft
Partly cloudy 4700 ft
Overcast 5500 ft
2024/06/14 21:56 KPWT 142156Z AUTO 20008KT 10SM -RA FEW015 SCT047 OVC055 A3015 RMK AO2 RAB37 SLPNO FZRANO $
 
KTCM - Tacoma/Mc Chord, Washington, USA
Distance from station: SSW 27mi, 43km
Updated: Fri, 14-Jun-2024 2:55pm PDT
Overcast
Overcast
 Wind from NNW
Wind: NNW 6 mph, 9 km/h
Temperature: 63°F, 17°C
Dew Point: 50°F, 10°C
Humidity: 64%
Barometer: 30.13 inHg, 1020.3 hPa
Clouds: Overcast
Visibility: 10 miles, 16 km
Cloud details: Partly cloudy 4400 ft
Overcast 6000 ft
2024/06/14 21:55 KTCM 142155Z AUTO 33005KT 10SM SCT044 OVC060 17/10 A3013 RMK AO2 SLP207 T01740095 $
KPAE - Everett, Washington, USA
Distance from station: N 32mi, 51km
Updated: Fri, 14-Jun-2024 2:53pm PDT
Overcast
Overcast
 Wind from S
Wind: S 13 mph, 20 km/h
Temperature: 64°F, 18°C
Dew Point: 46°F, 8°C
Humidity: 52%
Barometer: 30.12 inHg, 1020 hPa
Clouds: Overcast
Visibility: 10 miles, 16 km
Cloud details: Mostly cloudy 4300 ft
Mostly cloudy 4900 ft
Overcast 6000 ft
2024/06/14 21:53 KPAE 142153Z 17011KT 10SM BKN043 BKN049 OVC060 18/08 A3012 RMK AO2 RAE02 SLP200 P0000 T01780078
KGRF - Fort Lewis/Gray, Washington, USA
Distance from station: SSW 32mi, 52km
Updated: Fri, 14-Jun-2024 2:55pm PDT
Overcast
Overcast
 Wind from SSW
Wind: SSW 13 mph, 20 km/h
Temperature: 64°F, 18°C
Dew Point: 45°F, 7°C
Humidity: 49%
Barometer: 30.11 inHg, 1019.6 hPa
Clouds: Overcast
Visibility: 10 miles, 16 km
Cloud details: Few Clouds 4700 ft
Overcast 6500 ft
2024/06/14 21:55 KGRF 142155Z AUTO 21011KT 10SM FEW047 OVC065 18/07 A3011 RMK AO2 SLP200 T01770068 $
 
KSMP - Stampede Pass, Washington, USA
Distance from station: ESE 42mi, 68km
Updated: Fri, 14-Jun-2024 2:56pm PDT
Overcast
Overcast
 Wind from W
Wind: W 5 mph, 7 km/h
Temperature: 50°F, 10°C
Wind Chill: 48°F, 9°C
Dew Point: 36°F, 2°C
Humidity: 58%
Barometer: 30.13 inHg, 1020.3 hPa
Clouds: Overcast
Visibility: 10 miles, 16 km
Cloud details: Partly cloudy 3700 ft
Overcast 5000 ft
2024/06/14 21:56 KSMP 142156Z AUTO 27004KT 10SM SCT037 OVC050 10/02 A3013 RMK AO2 SLP205 T01000022 $
KSHN - Shelton, Washington, USA
Distance from station: WSW 46mi, 75km
Updated: Fri, 14-Jun-2024 2:53pm PDT
Light rain, Mist, Overcast
Light rain, Mist, Overcast
 Wind from W
Wind: W 8 mph, 13 km/h
Temperature: 55°F, 13°C
Dew Point: 52°F, 11°C
Humidity: 88%
Barometer: 30.13 inHg, 1020.3 hPa
Summary: Light rain, Mist
Clouds: Overcast
Visibility: 2 1/2 miles, 4 km
Cloud details: Few Clouds 1100 ft
Mostly cloudy 2800 ft
Overcast 5000 ft
2024/06/14 21:53 KSHN 142153Z AUTO 26007KT 2 1/2SM -RA BR FEW011 BKN028 OVC050 13/11 A3013 RMK AO2 RAB19 SLP205 P0013 T01280111
KOLM - Olympia, Washington, USA
Distance from station: SW 47mi, 76km
Updated: Fri, 14-Jun-2024 2:54pm PDT
Mostly cloudy
Mostly cloudy
 Wind from SW
Wind: SW 8 mph, 13 km/h
Temperature: 63°F, 17°C
Dew Point: 46°F, 8°C
Humidity: 56%
Barometer: 30.14 inHg, 1020.7 hPa
Clouds: Mostly cloudy
Visibility: 10 miles, 16 km
Cloud details: Mostly cloudy 7000 ft
2024/06/14 21:54 KOLM 142154Z 22007KT 10SM BKN070 17/08 A3014 RMK AO2 RAE2057 SLP207 P0000 T01720083
 
KAWO - Arlington Muni, Washington, USA
Distance from station: N 49mi, 78km
Updated: Fri, 14-Jun-2024 2:56pm PDT
Few Clouds
Few Clouds
 Wind from SE
Wind: SE 12 mph, 19 km/h
Temperature: 63°F, 17°C
Dew Point: 48°F, 9°C
Humidity: 59%
Barometer: 30.12 inHg, 1020 hPa
Clouds: Few Clouds
Visibility: 10 miles, 16 km
Cloud details: Few Clouds 5500 ft
2024/06/14 21:56 KAWO 142156Z AUTO 14010KT 10SM FEW055 17/09 A3012 RMK AO2 SLP204 T01720089